Terminal Aerodrome Forecast
Issued by NWS Wakefield, VA

Home | Current Version | Previous Version | Text Only | Print | Product List | Glossary On
Versions: 1 2 3 4 5 6 7 8 9 10 11 12 13 14 15 16 17
000
FTUS41 KAKQ 270835 AAA
TAFSBY
TAF AMD
KSBY 270835Z 2709/2806 19008KT P6SM BKN015
     FM271300 20012KT P6SM BKN040
     FM271600 20012G20KT P6SM BKN040
     FM272300 18008KT P6SM BKN250=

USA.gov is the U.S. government's official web portal to all federal, state and local government web resources and services.